Time;durP1;ratioP1;P1;durP2;ratioP2;P2;SDS_P1;SDS_P2;PMS_P1;PMS_P2;Temp;Humidity;BMP_temperature;BMP_pressure;BME280_temperature;BME280_humidity;BME280_pressure;Samples;Min_cycle;Max_cycle;Signal;HPM_P1;HPM_P2
2022/03/06 05:47:25;;;;;;;22.27;12.43;;;-2.20;82.30;;;;;;5003708;27;4466412;-84
2022/03/06 05:50:38;;;;;;;23.52;13.20;;;-2.30;82.60;;;;;;5149986;27;20096;-84
2022/03/06 05:53:08;;;;;;;26.67;14.18;;;-2.30;82.90;;;;;;5130455;27;20050;-84
2022/03/06 05:55:47;;;;;;;26.33;13.98;;;-2.30;82.90;;;;;;5136380;27;20163;-84
2022/03/06 05:58:26;;;;;;;24.02;13.73;;;-2.30;82.80;;;;;;5144364;27;20058;-84
2022/03/06 06:00:54;;;;;;;24.98;14.80;;;-2.40;82.70;;;;;;5136069;27;20149;-84
2022/03/06 06:03:32;;;;;;;21.60;13.48;;;-2.40;82.90;;;;;;5142915;27;20133;-84
2022/03/06 06:06:13;;;;;;;21.63;13.13;;;-2.40;82.90;;;;;;5156632;27;20040;-87
2022/03/06 06:08:54;;;;;;;29.88;14.13;;;-2.40;83.30;;;;;;5140696;27;20176;-85
2022/03/06 06:11:39;;;;;;;23.52;13.27;;;-2.40;83.40;;;;;;5109268;27;20062;-84
2022/03/06 06:14:06;;;;;;;25.23;13.68;;;-2.40;83.50;;;;;;5109557;27;20048;-84
2022/03/06 06:17:05;;;;;;;24.77;12.18;;;-2.40;84.10;;;;;;5141770;27;20101;-84
2022/03/06 06:20:04;;;;;;;20.30;12.38;;;-2.40;84.50;;;;;;5133518;27;20484;-84
2022/03/06 06:22:44;;;;;;;21.85;11.40;;;-2.30;84.50;;;;;;5122459;27;20851;-84
2022/03/06 06:25:23;;;;;;;22.45;13.65;;;-2.30;84.60;;;;;;5106917;27;20036;-85
2022/03/06 06:27:55;;;;;;;23.20;13.57;;;-2.30;84.30;;;;;;5137975;27;20933;-85
2022/03/06 06:30:52;;;;;;;23.92;12.23;;;-2.30;84.50;;;;;;5145458;27;20446;-85
2022/03/06 06:34:18;;;;;;;23.90;13.48;;;-2.30;84.90;;;;;;5123033;27;20052;-84
2022/03/06 06:37:38;;;;;;;18.40;10.65;;;-2.20;84.60;;;;;;5136167;27;20167;-85
2022/03/06 06:40:18;;;;;;;23.83;12.05;;;-2.20;85.00;;;;;;5093297;27;20044;-85
2022/03/06 06:42:48;;;;;;;21.40;10.88;;;-2.20;84.90;;;;;;5143626;27;20870;-85
2022/03/06 06:45:21;;;;;;;17.50;8.18;;;-2.10;84.80;;;;;;5142907;27;20051;-84
2022/03/06 06:48:01;;;;;;;23.20;12.38;;;-2.10;85.20;;;;;;5140839;27;20059;-85
2022/03/06 06:50:28;;;;;;;27.50;14.82;;;-2.10;85.00;;;;;;5138047;27;20043;-84
2022/03/06 06:52:58;;;;;;;22.65;12.77;;;-2.10;84.90;;;;;;5124346;27;20056;-85
2022/03/06 06:55:29;;;;;;;21.58;12.82;;;-2.00;85.10;;;;;;5117475;27;20430;-85
2022/03/06 06:57:59;;;;;;;22.48;12.20;;;-2.00;85.10;;;;;;5110030;27;20058;-85
2022/03/06 07:00:57;;;;;;;21.20;12.68;;;-2.00;84.90;;;;;;5107315;27;20054;-84
2022/03/06 07:03:46;;;;;;;19.58;12.10;;;-1.90;85.10;;;;;;5069894;27;20051;-85
2022/03/06 07:06:29;;;;;;;24.10;12.43;;;-1.90;84.90;;;;;;5126506;27;20052;-85
2022/03/06 07:09:05;;;;;;;22.98;11.70;;;-1.80;84.80;;;;;;5131881;27;20927;-85
2022/03/06 07:11:41;;;;;;;22.10;12.10;;;-1.80;84.90;;;;;;5113653;27;20067;-85
2022/03/06 07:14:12;;;;;;;18.80;11.20;;;-1.70;84.70;;;;;;5127303;27;20595;-85
2022/03/06 07:16:54;;;;;;;24.00;12.52;;;-1.70;84.60;;;;;;5121827;27;20040;-85
2022/03/06 07:20:07;;;;;;;12.82;8.10;;;-1.60;84.60;;;;;;5136163;27;20043;-85
2022/03/06 07:22:48;;;;;;;19.08;11.90;;;-1.50;84.50;;;;;;5134181;27;20424;-85
2022/03/06 07:25:46;;;;;;;14.05;8.57;;;-1.40;84.30;;;;;;5113157;27;20044;-85
2022/03/06 07:28:29;;;;;;;18.50;10.27;;;-1.40;84.40;;;;;;5111647;27;20503;-87
2022/03/06 07:31:19;;;;;;;18.85;10.63;;;-1.30;84.20;;;;;;5131391;27;20051;-88
2022/03/06 07:33:48;;;;;;;20.42;11.15;;;-1.30;84.30;;;;;;5109348;27;20705;-85
2022/03/06 07:36:15;;;;;;;20.08;11.55;;;-1.20;84.30;;;;;;5131387;27;20139;-85
2022/03/06 07:38:44;;;;;;;20.58;12.00;;;-1.20;84.30;;;;;;5146509;27;20061;-85
2022/03/06 07:41:11;;;;;;;16.42;10.82;;;-1.10;84.10;;;;;;5138331;27;20040;-85
2022/03/06 07:43:38;;;;;;;20.05;10.63;;;-1.00;84.20;;;;;;5130927;28;20059;-85
2022/03/06 07:46:05;;;;;;;22.88;11.35;;;-1.00;84.00;;;;;;5132962;27;20906;-84
2022/03/06 07:48:32;;;;;;;18.60;10.70;;;-0.90;84.00;;;;;;5131179;27;20056;-85
2022/03/06 07:50:59;;;;;;;18.15;10.23;;;-0.80;83.70;;;;;;5139982;27;20127;-85
2022/03/06 07:53:26;;;;;;;17.58;10.65;;;-0.80;83.60;;;;;;5133167;27;20032;-85
2022/03/06 07:55:53;;;;;;;16.05;8.23;;;-0.70;83.60;;;;;;5141452;27;20888;-85
2022/03/06 07:58:20;;;;;;;12.23;7.00;;;-0.70;83.30;;;;;;5130246;27;20076;-85
2022/03/06 08:00:47;;;;;;;16.55;9.40;;;-0.60;83.00;;;;;;5132001;27;20052;-85
2022/03/06 08:03:15;;;;;;;16.42;9.88;;;-0.50;83.00;;;;;;5127585;27;20071;-86
2022/03/06 08:05:51;;;;;;;18.40;10.30;;;-0.40;82.80;;;;;;5124063;27;20169;-86
2022/03/06 08:08:18;;;;;;;16.67;10.17;;;-0.30;82.30;;;;;;5132755;27;20508;-86
2022/03/06 08:10:46;;;;;;;18.73;9.77;;;-0.30;82.10;;;;;;5130807;27;20044;-86
2022/03/06 08:13:13;;;;;;;17.30;10.57;;;-0.20;81.90;;;;;;5129188;27;20058;-85
2022/03/06 08:15:43;;;;;;;15.30;8.48;;;-0.10;81.60;;;;;;5105846;27;20078;-86
2022/03/06 08:18:10;;;;;;;14.15;9.63;;;0.00;81.30;;;;;;5135749;27;20048;-85
2022/03/06 08:20:38;;;;;;;15.13;9.63;;;0.10;81.10;;;;;;5127390;27;20490;-85
2022/03/06 08:23:05;;;;;;;15.20;9.05;;;0.20;80.90;;;;;;5126205;27;20048;-85
2022/03/06 08:25:34;;;;;;;19.27;9.38;;;0.30;80.10;;;;;;5127294;27;20075;-85
2022/03/06 08:28:04;;;;;;;14.70;9.35;;;0.60;80.40;;;;;;5134297;27;20557;-86
2022/03/06 08:30:35;;;;;;;13.60;7.78;;;1.10;79.40;;;;;;5135035;27;20143;-86
2022/03/06 08:36:01;;;;;;;14.50;7.30;;;1.90;75.10;;;;;;5093543;27;20075;-85
2022/03/06 08:38:29;;;;;;;11.70;6.55;;;2.20;74.10;;;;;;5125925;27;20427;-85
2022/03/06 08:40:59;;;;;;;9.38;6.25;;;2.40;72.20;;;;;;5131414;27;20097;-85
2022/03/06 08:43:32;;;;;;;9.50;5.70;;;2.70;70.80;;;;;;5134239;27;20047;-86
2022/03/06 08:45:59;;;;;;;8.82;5.88;;;2.90;69.30;;;;;;5130606;27;20178;-85
2022/03/06 08:48:26;;;;;;;9.18;5.80;;;3.00;69.20;;;;;;5124985;27;20111;-86
2022/03/06 08:51:05;;;;;;;8.25;5.50;;;3.40;67.60;;;;;;5128278;27;20056;-85
2022/03/06 08:53:50;;;;;;;10.10;4.78;;;3.60;66.90;;;;;;5128503;27;20067;-85
2022/03/06 08:56:22;;;;;;;6.68;3.42;;;3.80;64.60;;;;;;5128907;27;20507;-86
2022/03/06 08:58:50;;;;;;;9.60;5.72;;;4.00;63.60;;;;;;5121923;27;20428;-85
2022/03/06 09:01:20;;;;;;;9.15;5.22;;;4.20;63.80;;;;;;5110754;27;20138;-85
2022/03/06 09:04:03;;;;;;;7.10;4.53;;;4.60;61.50;;;;;;5116003;27;20056;-85
2022/03/06 09:06:35;;;;;;;9.80;4.50;;;4.80;61.00;;;;;;5121965;27;20051;-85
2022/03/06 09:09:09;;;;;;;10.10;4.65;;;5.00;60.00;;;;;;5115748;27;20894;-85
2022/03/06 09:11:45;;;;;;;7.80;4.35;;;5.20;59.70;;;;;;5129278;27;20036;-85
2022/03/06 09:14:15;;;;;;;8.93;4.45;;;5.40;59.20;;;;;;5126458;27;20103;-85
2022/03/06 09:16:44;;;;;;;7.93;3.92;;;5.80;58.00;;;;;;5129259;27;20070;-85
2022/03/06 09:19:19;;;;;;;9.25;4.78;;;6.00;56.10;;;;;;5129088;27;20047;-86
2022/03/06 09:21:55;;;;;;;6.93;4.23;;;5.90;56.90;;;;;;5119471;27;20061;-85
2022/03/06 09:24:23;;;;;;;9.32;4.22;;;6.20;56.20;;;;;;5133809;27;20303;-85
2022/03/06 09:26:53;;;;;;;9.52;4.38;;;6.20;55.00;;;;;;5128947;27;20059;-85
2022/03/06 09:29:23;;;;;;;10.18;4.43;;;6.20;54.40;;;;;;5145652;27;20050;-86
2022/03/06 09:31:50;;;;;;;9.30;3.97;;;6.20;55.80;;;;;;5136587;27;20051;-85
2022/03/06 09:34:17;;;;;;;9.80;4.90;;;6.50;54.50;;;;;;5132788;27;20523;-85
2022/03/06 09:37:20;;;;;;;9.90;3.67;;;6.80;55.20;;;;;;5085646;27;20082;-85
2022/03/06 09:39:52;;;;;;;7.65;4.20;;;6.90;53.00;;;;;;5109245;27;20488;-85
2022/03/06 09:42:20;;;;;;;7.20;4.25;;;6.90;52.50;;;;;;5131615;27;20052;-85
2022/03/06 09:44:50;;;;;;;6.57;3.95;;;6.90;52.20;;;;;;5126334;27;20150;-86
2022/03/06 09:47:17;;;;;;;8.32;4.13;;;6.90;53.00;;;;;;5129597;27;20054;-85
2022/03/06 09:49:46;;;;;;;7.57;3.80;;;7.00;52.80;;;;;;5124495;27;20803;-85
2022/03/06 09:52:16;;;;;;;7.30;3.40;;;7.20;51.70;;;;;;5133739;27;20401;-85
2022/03/06 09:54:49;;;;;;;5.78;3.63;;;7.10;50.80;;;;;;5134228;27;20051;-85
2022/03/06 09:57:23;;;;;;;5.77;3.60;;;7.20;49.80;;;;;;5131291;27;20052;-86
2022/03/06 09:59:50;;;;;;;5.90;3.42;;;6.70;50.00;;;;;;5128269;27;20091;-85
2022/03/06 10:02:19;;;;;;;7.70;3.60;;;6.40;48.30;;;;;;5131167;27;20044;-85
2022/03/06 10:04:46;;;;;;;8.68;3.88;;;6.60;49.80;;;;;;5127878;27;20040;-85
2022/03/06 10:07:19;;;;;;;7.90;3.70;;;6.30;48.60;;;;;;5135288;27;20051;-85
2022/03/06 10:09:47;;;;;;;12.75;3.70;;;6.60;49.40;;;;;;5130246;27;20105;-85
2022/03/06 10:12:27;;;;;;;5.97;3.42;;;6.50;49.20;;;;;;5124733;27;20052;-85
2022/03/06 10:15:05;;;;;;;6.32;3.83;;;6.70;48.10;;;;;;5131121;27;20867;-85
2022/03/06 10:17:33;;;;;;;8.05;4.25;;;6.80;48.60;;;;;;5128184;27;20055;-84
2022/03/06 10:20:18;;;;;;;8.35;3.92;;;6.80;47.90;;;;;;5130906;27;20082;-86
2022/03/06 10:31:05;;;;;;;7.63;4.25;;;7.20;47.10;;;;;;5007709;28;20053;-85
2022/03/06 10:34:00;;;;;;;5.50;3.88;;;7.40;47.10;;;;;;4975570;28;20047;-85
2022/03/06 10:39:41;;;;;;;6.07;3.80;;;7.40;46.10;;;;;;4953228;28;20042;-86
2022/03/06 10:42:20;;;;;;;6.07;3.47;;;7.20;46.70;;;;;;4971568;28;20158;-86
2022/03/06 10:45:08;;;;;;;7.93;3.70;;;7.40;48.00;;;;;;4976134;28;20213;-86
2022/03/06 10:48:18;;;;;;;6.80;4.00;;;7.60;46.80;;;;;;4973334;28;20949;-86
2022/03/06 10:54:21;;;;;;;7.00;3.75;;;7.50;46.60;;;;;;4972165;28;20047;-86
2022/03/06 10:57:12;;;;;;;6.72;3.90;;;7.70;45.80;;;;;;4968489;28;20134;-86
2022/03/06 11:00:18;;;;;;;7.15;4.10;;;7.70;46.00;;;;;;4972205;28;20058;-85
2022/03/06 11:03:09;;;;;;;8.00;3.92;;;7.70;45.40;;;;;;4969538;28;20066;-86
2022/03/06 11:06:25;;;;;;;6.00;3.60;;;7.90;45.20;;;;;;4970932;28;20055;-86
2022/03/06 11:13:09;;;;;;;8.48;4.47;;;7.50;45.40;;;;;;5015291;28;20082;-86
2022/03/06 11:15:50;;;;;;;8.98;4.10;;;7.60;45.50;;;;;;4955186;28;20674;-87
2022/03/06 11:18:49;;;;;;;7.20;4.30;;;7.60;44.10;;;;;;4972368;28;20811;-87
2022/03/06 11:21:55;;;;;;;;;;;;;;;;;;;;;
2022/03/06 11:25:11;;;;;;;7.05;4.20;;;7.40;44.60;;;;;;4976198;28;20047;-87
2022/03/06 11:28:00;;;;;;;8.25;4.60;;;7.60;44.00;;;;;;4929622;28;20082;-87
2022/03/06 11:31:14;;;;;;;7.40;4.53;;;7.60;45.20;;;;;;4915584;29;20566;-88
2022/03/06 11:34:47;;;;;;;10.38;4.70;;;7.50;43.80;;;;;;4962364;28;20051;-87
2022/03/06 11:38:46;;;;;;;7.55;4.65;;;7.50;44.00;;;;;;4956343;28;20052;-87
2022/03/06 11:41:10;;;;;;;7.15;4.07;;;7.30;44.30;;;;;;4934035;28;20113;-87
2022/03/06 11:46:39;;;;;;;6.57;4.20;;;7.40;44.50;;;;;;4976540;28;20054;-87
2022/03/06 11:52:57;;;;;;;7.53;4.35;;;7.00;44.80;;;;;;4993436;28;20058;-87
2022/03/06 11:56:03;;;;;;;6.20;3.63;;;7.10;45.30;;;;;;5026761;28;20754;-87
2022/03/06 11:59:02;;;;;;;8.25;4.57;;;6.80;45.50;;;;;;4967348;28;20043;-87
2022/03/06 12:01:47;;;;;;;6.35;3.70;;;6.70;45.80;;;;;;5037635;28;20065;-87
2022/03/06 12:04:31;;;;;;;8.25;4.78;;;6.40;44.80;;;;;;5024244;28;20364;-86
2022/03/06 12:07:32;;;;;;;6.65;4.15;;;6.30;46.30;;;;;;5028626;28;20505;-87
2022/03/06 12:11:02;;;;;;;7.22;3.80;;;6.30;47.70;;;;;;5067746;28;20049;-88
2022/03/06 12:14:11;;;;;;;8.73;3.83;;;6.40;48.30;;;;;;5076219;28;20063;-87
2022/03/06 12:17:01;;;;;;;7.07;3.47;;;6.30;47.50;;;;;;5075228;28;20100;-87
2022/03/06 12:19:45;;;;;;;9.13;4.43;;;6.20;47.70;;;;;;5053254;28;20561;-87
2022/03/06 12:22:23;;;;;;;7.20;4.47;;;6.20;48.00;;;;;;5079022;28;20844;-87
2022/03/06 12:25:27;;;;;;;9.00;5.20;;;6.20;48.40;;;;;;5083399;28;20873;-87
2022/03/06 12:32:25;;;;;;;7.15;4.13;;;6.50;47.50;;;;;;5016795;28;20130;-87
2022/03/06 12:35:26;;;;;;;7.85;4.68;;;6.40;47.80;;;;;;5000939;28;20061;-87
2022/03/06 12:38:27;;;;;;;9.30;4.43;;;6.60;47.30;;;;;;5004230;28;20054;-87
2022/03/06 12:41:18;;;;;;;8.75;4.57;;;6.60;46.90;;;;;;5018167;28;20149;-87
2022/03/06 12:43:55;;;;;;;7.57;4.00;;;6.80;46.60;;;;;;5017383;28;20065;-87
2022/03/06 12:58:17;;;;;;;9.57;3.00;;;6.50;45.70;;;;;;4902214;29;20065;-88
2022/03/06 13:00:45;;;;;;;8.18;4.63;;;6.40;46.60;;;;;;4901651;29;20049;-87
2022/03/06 13:03:29;;;;;;;10.18;4.20;;;6.50;47.00;;;;;;4901586;29;20128;-87
2022/03/06 13:09:34;;;;;;;8.32;4.32;;;6.60;46.50;;;;;;4947819;28;20792;-88
2022/03/06 13:12:01;;;;;;;8.73;4.93;;;6.40;46.50;;;;;;4961819;28;20154;-87
2022/03/06 13:14:48;;;;;;;8.52;4.63;;;6.60;47.10;;;;;;4958206;28;20179;-88
2022/03/06 13:17:25;;;;;;;8.25;4.47;;;6.60;46.10;;;;;;4939865;28;20079;-87
2022/03/06 13:20:25;;;;;;;7.47;4.03;;;6.70;46.70;;;;;;4940433;28;20110;-87
2022/03/06 13:22:51;;;;;;;9.38;5.22;;;6.80;46.10;;;;;;4924572;28;20047;-87
2022/03/06 13:25:37;;;;;;;6.97;3.20;;;6.60;46.80;;;;;;4948525;28;20051;-88
2022/03/06 13:31:46;;;;;;;7.05;4.35;;;6.50;45.70;;;;;;5031129;28;20054;-88
2022/03/06 13:34:44;;;;;;;6.63;3.88;;;6.50;46.40;;;;;;5055597;28;20200;-87
2022/03/06 13:37:49;;;;;;;6.57;4.30;;;6.50;46.00;;;;;;5026880;28;20057;-88
2022/03/06 13:40:45;;;;;;;5.72;4.05;;;6.50;45.80;;;;;;5069218;28;20045;-87
2022/03/06 13:52:09;;;;;;;4.60;2.67;;;6.30;44.10;;;;;;5007479;28;20051;-87
2022/03/06 13:55:32;;;;;;;6.15;2.60;;;6.20;44.00;;;;;;4934105;29;20107;-87
2022/03/06 13:58:37;;;;;;;;;;;;;;;;;;;;;
2022/03/06 14:01:21;;;;;;;5.95;2.95;;;6.50;43.10;;;;;;5045140;28;20093;-87
2022/03/06 14:04:23;;;;;;;;;;;6.50;43.70;;;;;;4967964;28;20115;-87
2022/03/06 14:07:24;;;;;;;5.40;2.50;;;6.50;43.50;;;;;;4972824;28;19930;-87
2022/03/06 14:09:57;;;;;;;5.18;2.72;;;6.40;43.10;;;;;;5044791;28;20965;-87
2022/03/06 14:12:38;;;;;;;4.40;2.38;;;6.40;43.70;;;;;;5039481;28;20096;-88
2022/03/06 14:15:24;;;;;;;3.25;1.90;;;6.50;43.70;;;;;;5054504;28;20057;-88
2022/03/06 14:18:08;;;;;;;3.35;2.13;;;6.40;43.30;;;;;;5044520;28;20570;-87
2022/03/06 14:23:49;;;;;;;6.50;2.78;;;6.40;43.40;;;;;;5078314;28;20165;-87
2022/03/06 14:26:25;;;;;;;5.05;2.67;;;6.50;44.00;;;;;;5099487;28;20036;-88
2022/03/06 14:29:29;;;;;;;5.28;2.28;;;6.60;44.00;;;;;;5122394;28;20036;-88
2022/03/06 14:32:21;;;;;;;7.75;3.03;;;6.50;43.60;;;;;;5103099;28;20044;-88
2022/03/06 14:34:57;;;;;;;4.00;2.08;;;6.50;44.10;;;;;;5100600;28;20055;-88
2022/03/06 14:37:24;;;;;;;3.63;2.10;;;6.60;44.10;;;;;;5103936;28;20033;-88
2022/03/06 14:40:30;;;;;;;5.13;2.22;;;6.60;44.20;;;;;;5113636;28;20032;-88
2022/03/06 14:48:02;;;;;;;;;;;;;;;;;;;;;
2022/03/06 14:51:00;;;;;;;;;;;;;;;;;;;;;
2022/03/06 14:54:40;;;;;;;2.83;1.70;;;6.80;44.00;;;;;;4999632;28;20134;-88
2022/03/06 14:57:11;;;;;;;;;;;6.70;43.40;;;;;;4994446;28;20055;-89
2022/03/06 15:00:00;;;;;;;4.53;1.92;;;6.70;43.90;;;;;;4987807;28;19930;-88
2022/03/06 15:02:30;;;;;;;3.75;2.10;;;6.70;44.20;;;;;;5000888;28;20039;-86
2022/03/06 15:05:14;;;;;;;4.75;2.10;;;6.70;44.70;;;;;;5001720;28;20043;-86
2022/03/06 15:08:47;;;;;;;5.30;2.47;;;6.80;44.80;;;;;;4995062;28;20090;-85
2022/03/06 15:12:09;;;;;;;5.15;2.08;;;6.70;45.00;;;;;;4985572;28;20049;-86
2022/03/06 15:14:58;;;;;;;5.90;2.20;;;6.80;43.50;;;;;;4992826;28;20066;-87
2022/03/06 15:18:04;;;;;;;4.00;2.13;;;6.70;43.40;;;;;;4993620;28;20051;-87
2022/03/06 15:20:47;;;;;;;7.63;2.40;;;6.90;43.90;;;;;;5005751;28;20050;-86
2022/03/06 15:24:17;;;;;;;9.27;2.20;;;7.00;44.50;;;;;;5090193;28;20099;-87
2022/03/06 15:27:03;;;;;;;6.43;2.38;;;6.90;44.20;;;;;;5081159;28;20207;-87
2022/03/06 15:30:24;;;;;;;3.42;2.00;;;6.90;44.40;;;;;;5073263;28;20043;-87
2022/03/06 15:33:26;;;;;;;3.65;2.10;;;6.80;44.20;;;;;;5096138;28;20072;-87
2022/03/06 15:36:52;;;;;;;5.05;2.00;;;6.70;44.50;;;;;;5066161;28;20497;-87
2022/03/06 15:39:45;;;;;;;5.05;2.20;;;6.70;44.80;;;;;;5083700;28;20057;-87
2022/03/06 15:42:43;;;;;;;3.83;2.05;;;6.80;45.30;;;;;;5079269;28;20049;-86
2022/03/06 15:45:36;;;;;;;9.48;2.15;;;6.80;45.70;;;;;;5067199;28;20900;-87
2022/03/06 15:48:18;;;;;;;3.78;2.30;;;7.00;44.90;;;;;;5100944;28;20927;-87
2022/03/06 15:51:03;;;;;;;5.07;1.90;;;7.20;45.60;;;;;;5102939;28;20103;-88
2022/03/06 15:53:58;;;;;;;6.38;2.42;;;7.40;44.10;;;;;;5097359;28;20056;-88
2022/03/06 15:56:58;;;;;;;6.68;2.33;;;7.60;44.30;;;;;;5124872;27;20044;-88
2022/03/06 16:00:43;;;;;;;2.42;1.88;;;7.80;44.20;;;;;;5090585;28;20130;-87
2022/03/06 16:04:04;;;;;;;4.13;2.25;;;7.60;43.20;;;;;;5082233;28;20938;-86
2022/03/06 16:07:04;;;;;;;6.70;2.50;;;7.60;43.90;;;;;;5003086;28;20091;-87
2022/03/06 16:10:34;;;;;;;5.88;2.28;;;7.60;44.00;;;;;;5063177;28;20053;-87
2022/03/06 16:14:03;;;;;;;5.13;2.10;;;7.60;44.40;;;;;;5000628;28;20470;-87
2022/03/06 16:16:55;;;;;;;5.00;2.05;;;7.60;44.40;;;;;;4983035;28;20055;-87
2022/03/06 16:24:29;;;;;;;;;;;;;;;;;;;;;
2022/03/06 16:27:41;;;;;;;;;;;;;;;;;;;;;
2022/03/06 16:33:57;;;;;;;5.78;2.40;;;6.70;47.50;;;;;;5004078;28;20252;-87
2022/03/06 16:41:16;;;;;;;7.50;2.88;;;6.40;47.50;;;;;;4957353;28;20056;-89
2022/03/06 16:54:48;;;;;;;7.25;3.30;;;5.50;49.80;;;;;;4885301;29;20080;-87
2022/03/06 16:57:44;;;;;;;5.47;2.95;;;5.40;50.20;;;;;;4871743;29;20047;-88
2022/03/06 17:00:31;;;;;;;8.68;2.90;;;5.30;51.00;;;;;;4894456;29;20451;-87
2022/03/06 17:03:18;;;;;;;5.22;2.67;;;5.20;51.30;;;;;;4890808;29;20057;-87
2022/03/06 17:06:44;;;;;;;4.30;2.55;;;5.10;51.80;;;;;;4890696;29;20837;-87
2022/03/06 17:09:23;;;;;;;7.70;3.10;;;5.00;52.00;;;;;;4884238;29;20833;-87
2022/03/06 17:11:58;;;;;;;9.02;3.17;;;4.90;52.60;;;;;;4868994;29;20941;-87
2022/03/06 17:14:33;;;;;;;7.05;3.47;;;4.80;52.50;;;;;;4888387;29;20957;-87
2022/03/06 17:21:19;;;;;;;;;;;;;;;;;;;;;
2022/03/06 17:24:35;;;;;;;;;;;;;;;;;;;;;
2022/03/06 17:27:29;;;;;;;7.80;2.97;;;4.60;54.10;;;;;;5041305;28;20046;-86
2022/03/06 17:33:48;;;;;;;6.60;3.13;;;4.40;55.00;;;;;;4997819;28;20054;-86
2022/03/06 17:36:50;;;;;;;;;;;;;;;;;;;;;
2022/03/06 17:39:41;;;;;;;6.28;3.75;;;4.20;55.80;;;;;;5042091;28;20038;-88
2022/03/06 17:42:43;;;;;;;9.65;4.20;;;4.10;56.30;;;;;;5034304;28;20837;-88
2022/03/06 17:45:38;;;;;;;9.13;3.78;;;4.00;56.50;;;;;;5042593;28;20049;-88
2022/03/06 17:48:31;;;;;;;7.82;3.42;;;4.00;56.90;;;;;;5020388;28;20147;-88
2022/03/06 17:54:55;;;;;;;9.73;3.25;;;3.80;57.40;;;;;;5033407;28;21214;-87
2022/03/06 17:57:40;;;;;;;;;;;3.70;57.70;;;;;;5033932;28;20042;-88
2022/03/06 18:05:02;;;;;;;6.28;3.15;;;3.70;58.30;;;;;;5026393;28;20115;-88
2022/03/06 18:08:29;;;;;;;12.43;3.90;;;3.60;58.40;;;;;;4996377;28;20055;-87
2022/03/06 18:15:14;;;;;;;10.38;4.35;;;3.40;59.00;;;;;;4938026;29;20040;-87
2022/03/06 22:52:54;;;;;;;9.73;5.45;;;-0.70;72.10;;;;;;6037710;22;4261872;-84
2022/03/06 22:55:39;;;;;;;9.48;5.13;;;-0.70;72.90;;;;;;6167501;23;20049;-83
2022/03/06 22:58:19;;;;;;;6.50;3.90;;;-0.80;74.90;;;;;;6187085;23;20075;-83
2022/03/06 23:00:55;;;;;;;7.38;4.00;;;-0.80;75.00;;;;;;6188291;23;20026;-83
2022/03/06 23:03:29;;;;;;;11.43;3.97;;;-0.80;73.40;;;;;;6188186;23;20025;-83
2022/03/06 23:08:56;;;;;;;12.73;4.03;;;-0.90;74.20;;;;;;6188132;23;20102;-83
2022/03/06 23:11:26;;;;;;;7.75;4.05;;;-0.90;74.70;;;;;;6189439;23;20788;-83
2022/03/06 23:13:55;;;;;;;8.80;3.80;;;-1.00;74.50;;;;;;6187302;23;20077;-84
2022/03/06 23:16:24;;;;;;;7.43;4.60;;;-1.00;73.80;;;;;;6188982;23;20021;-84
2022/03/06 23:18:55;;;;;;;7.38;3.85;;;-1.00;74.70;;;;;;6189332;23;20017;-84
2022/03/06 23:21:26;;;;;;;8.70;4.43;;;-1.00;74.90;;;;;;6187745;23;20061;-84
2022/03/06 23:23:56;;;;;;;9.93;4.45;;;-1.10;75.20;;;;;;6187829;23;20026;-84
2022/03/06 23:26:27;;;;;;;8.52;5.00;;;-1.00;74.20;;;;;;6188141;23;20100;-84
2022/03/06 23:28:58;;;;;;;11.73;5.57;;;-1.10;74.50;;;;;;6188421;23;20033;-84
2022/03/06 23:31:29;;;;;;;10.80;5.28;;;-1.10;74.40;;;;;;6190193;23;20512;-84
2022/03/06 23:34:01;;;;;;;12.77;5.38;;;-1.10;74.30;;;;;;6189573;23;20400;-85
2022/03/06 23:36:32;;;;;;;11.55;5.22;;;-1.10;74.70;;;;;;6188214;23;20456;-85
2022/03/06 23:39:05;;;;;;;10.32;5.38;;;-1.10;74.60;;;;;;6188372;23;20017;-85
2022/03/06 23:41:38;;;;;;;9.60;5.82;;;-1.10;73.80;;;;;;6190719;23;20018;-84
2022/03/06 23:44:14;;;;;;;13.32;5.10;;;-1.10;74.80;;;;;;6191936;23;20021;-85
2022/03/06 23:46:50;;;;;;;12.57;5.30;;;-1.10;74.70;;;;;;6191834;23;20096;-85
2022/03/06 23:49:28;;;;;;;14.83;5.90;;;-1.20;73.70;;;;;;6189624;23;20112;-85
2022/03/06 23:52:01;;;;;;;12.95;5.57;;;-1.20;73.40;;;;;;6191820;23;20033;-85
2022/03/06 23:54:33;;;;;;;10.88;5.60;;;-1.20;73.90;;;;;;6190929;23;20647;-85
2022/03/06 23:57:12;;;;;;;12.75;5.93;;;-1.30;74.90;;;;;;6190868;23;20022;-85
2022/03/06 23:59:40;;;;;;;14.40;6.50;;;-1.30;74.60;;;;;;6189117;23;20021;-85
